Catoosa, Oklahoma
Current Conditions -  °F | °C
As of 6:53 PM on Sunday 23 Nov 2014 (Local Time) from KTUL Reporting Station
Overcast Overcast  
Wind Chill: 50°   Ceiling: 2100
Heat Index: 50°   Visibility: 10mi
Dew Point: 42°   Wind: 26mph
Humidity: 74%   Direction: 330°NNW
Pressure: 29.47"   Gusts: 35mph
Location:  36.19°N, 95.75°W
Report Text: KTUL 240053Z 33023G30KT 10SM OVC021 10/06 A2947 RMK AO2 PK WND 33030/0044 PRESRR SLP976 T01000056
Loading
Personal Weather Stations






























Interactive Weather Map New forecast layout! Learn more

10-Day Weather Forecast

Advertisements
Track Severe Weather on mobile